sensor_id;sensor_type;location;lat;lon;timestamp;temperature;humidity
70107;DHT22;57473;37.508;15.080;2023-04-24T00:00:42;16.40;59.20
70107;DHT22;57473;37.508;15.080;2023-04-24T00:03:12;16.40;59.20
70107;DHT22;57473;37.508;15.080;2023-04-24T00:05:40;16.40;59.10
70107;DHT22;57473;37.508;15.080;2023-04-24T00:08:08;16.40;59.30
70107;DHT22;57473;37.508;15.080;2023-04-24T00:10:35;16.40;59.20
70107;DHT22;57473;37.508;15.080;2023-04-24T00:13:03;16.40;59.20
70107;DHT22;57473;37.508;15.080;2023-04-24T00:15:30;16.40;59.30
70107;DHT22;57473;37.508;15.080;2023-04-24T00:17:59;16.40;59.20
70107;DHT22;57473;37.508;15.080;2023-04-24T00:20:28;16.30;59.30
70107;DHT22;57473;37.508;15.080;2023-04-24T00:23:02;16.30;59.40
70107;DHT22;57473;37.508;15.080;2023-04-24T00:25:30;16.30;59.30
70107;DHT22;57473;37.508;15.080;2023-04-24T00:27:57;16.40;59.30
70107;DHT22;57473;37.508;15.080;2023-04-24T00:30:24;16.40;59.10
70107;DHT22;57473;37.508;15.080;2023-04-24T00:32:52;16.40;59.00
70107;DHT22;57473;37.508;15.080;2023-04-24T00:35:19;16.40;58.90
70107;DHT22;57473;37.508;15.080;2023-04-24T00:37:47;16.50;58.80
70107;DHT22;57473;37.508;15.080;2023-04-24T00:40:14;16.50;58.60
70107;DHT22;57473;37.508;15.080;2023-04-24T00:42:43;16.50;58.50
70107;DHT22;57473;37.508;15.080;2023-04-24T00:45:11;16.50;58.50
70107;DHT22;57473;37.508;15.080;2023-04-24T00:47:39;16.50;58.50
70107;DHT22;57473;37.508;15.080;2023-04-24T00:50:08;16.40;58.50
70107;DHT22;57473;37.508;15.080;2023-04-24T00:52:36;16.40;58.50
70107;DHT22;57473;37.508;15.080;2023-04-24T00:55:04;16.40;58.50
70107;DHT22;57473;37.508;15.080;2023-04-24T00:57:32;16.40;58.60
70107;DHT22;57473;37.508;15.080;2023-04-24T01:00:00;16.40;58.60
70107;DHT22;57473;37.508;15.080;2023-04-24T01:02:27;16.30;58.70
70107;DHT22;57473;37.508;15.080;2023-04-24T01:04:55;16.30;58.80
70107;DHT22;57473;37.508;15.080;2023-04-24T01:07:24;16.30;58.90
70107;DHT22;57473;37.508;15.080;2023-04-24T01:09:52;16.30;58.90
70107;DHT22;57473;37.508;15.080;2023-04-24T01:12:19;16.30;59.10
70107;DHT22;57473;37.508;15.080;2023-04-24T01:14:47;16.20;59.20
70107;DHT22;57473;37.508;15.080;2023-04-24T01:17:17;16.20;59.20
70107;DHT22;57473;37.508;15.080;2023-04-24T01:19:44;16.20;59.00
70107;DHT22;57473;37.508;15.080;2023-04-24T01:22:15;16.20;59.00
70107;DHT22;57473;37.508;15.080;2023-04-24T01:24:43;16.20;59.00
70107;DHT22;57473;37.508;15.080;2023-04-24T01:27:12;16.20;59.10
70107;DHT22;57473;37.508;15.080;2023-04-24T01:29:44;16.10;59.20
70107;DHT22;57473;37.508;15.080;2023-04-24T01:32:12;16.10;59.50
70107;DHT22;57473;37.508;15.080;2023-04-24T01:34:40;16.10;59.60
70107;DHT22;57473;37.508;15.080;2023-04-24T01:37:08;16.00;59.60
70107;DHT22;57473;37.508;15.080;2023-04-24T01:39:35;16.00;59.60
70107;DHT22;57473;37.508;15.080;2023-04-24T01:42:04;15.90;59.50
70107;DHT22;57473;37.508;15.080;2023-04-24T01:44:33;15.90;59.60
70107;DHT22;57473;37.508;15.080;2023-04-24T01:47:03;15.90;59.60
70107;DHT22;57473;37.508;15.080;2023-04-24T01:49:30;15.80;59.80
70107;DHT22;57473;37.508;15.080;2023-04-24T01:51:58;15.80;59.90
70107;DHT22;57473;37.508;15.080;2023-04-24T01:54:30;15.70;60.10
70107;DHT22;57473;37.508;15.080;2023-04-24T01:56:57;15.70;60.20
70107;DHT22;57473;37.508;15.080;2023-04-24T01:59:25;15.60;60.40
70107;DHT22;57473;37.508;15.080;2023-04-24T02:01:54;15.60;60.60
70107;DHT22;57473;37.508;15.080;2023-04-24T02:04:22;15.60;60.70
70107;DHT22;57473;37.508;15.080;2023-04-24T02:06:49;15.60;60.90
70107;DHT22;57473;37.508;15.080;2023-04-24T02:09:17;15.60;61.10
70107;DHT22;57473;37.508;15.080;2023-04-24T02:11:45;15.60;61.20
70107;DHT22;57473;37.508;15.080;2023-04-24T02:14:12;15.60;61.30
70107;DHT22;57473;37.508;15.080;2023-04-24T02:16:40;15.50;61.50
70107;DHT22;57473;37.508;15.080;2023-04-24T02:19:07;15.50;61.60
70107;DHT22;57473;37.508;15.080;2023-04-24T02:21:34;15.50;61.60
70107;DHT22;57473;37.508;15.080;2023-04-24T02:24:02;15.50;61.50
70107;DHT22;57473;37.508;15.080;2023-04-24T02:26:29;15.50;61.60
70107;DHT22;57473;37.508;15.080;2023-04-24T02:28:58;15.50;61.40
70107;DHT22;57473;37.508;15.080;2023-04-24T02:31:26;15.50;61.50
70107;DHT22;57473;37.508;15.080;2023-04-24T02:33:54;15.50;61.80
70107;DHT22;57473;37.508;15.080;2023-04-24T02:36:22;15.40;62.20
70107;DHT22;57473;37.508;15.080;2023-04-24T02:38:50;15.30;62.60
70107;DHT22;57473;37.508;15.080;2023-04-24T02:41:17;15.20;63.20
70107;DHT22;57473;37.508;15.080;2023-04-24T02:43:45;15.10;63.70
70107;DHT22;57473;37.508;15.080;2023-04-24T02:46:12;14.90;64.20
70107;DHT22;57473;37.508;15.080;2023-04-24T02:48:40;14.80;64.70
70107;DHT22;57473;37.508;15.080;2023-04-24T02:51:07;14.80;64.80
70107;DHT22;57473;37.508;15.080;2023-04-24T02:53:35;14.80;65.00
70107;DHT22;57473;37.508;15.080;2023-04-24T02:56:02;14.80;65.00
70107;DHT22;57473;37.508;15.080;2023-04-24T02:58:30;14.80;65.10
70107;DHT22;57473;37.508;15.080;2023-04-24T03:00:57;14.80;65.00
70107;DHT22;57473;37.508;15.080;2023-04-24T03:03:25;14.80;65.20
70107;DHT22;57473;37.508;15.080;2023-04-24T03:05:53;14.70;65.60
70107;DHT22;57473;37.508;15.080;2023-04-24T03:08:20;14.60;66.00
70107;DHT22;57473;37.508;15.080;2023-04-24T03:10:48;14.50;66.50
70107;DHT22;57473;37.508;15.080;2023-04-24T03:13:16;14.40;66.90
70107;DHT22;57473;37.508;15.080;2023-04-24T03:15:43;14.30;67.30
70107;DHT22;57473;37.508;15.080;2023-04-24T03:18:12;14.30;67.50
70107;DHT22;57473;37.508;15.080;2023-04-24T03:20:39;14.20;67.90
70107;DHT22;57473;37.508;15.080;2023-04-24T03:23:07;14.20;68.00
70107;DHT22;57473;37.508;15.080;2023-04-24T03:25:36;14.20;68.10
70107;DHT22;57473;37.508;15.080;2023-04-24T03:28:03;14.10;68.30
70107;DHT22;57473;37.508;15.080;2023-04-24T03:30:39;14.10;68.50
70107;DHT22;57473;37.508;15.080;2023-04-24T03:33:07;14.00;68.70
70107;DHT22;57473;37.508;15.080;2023-04-24T03:35:38;14.00;69.00
70107;DHT22;57473;37.508;15.080;2023-04-24T03:38:09;13.90;69.40
70107;DHT22;57473;37.508;15.080;2023-04-24T03:40:55;13.80;69.70
70107;DHT22;57473;37.508;15.080;2023-04-24T03:43:42;13.70;70.20
70107;DHT22;57473;37.508;15.080;2023-04-24T03:46:10;13.60;70.40
70107;DHT22;57473;37.508;15.080;2023-04-24T03:48:43;13.60;70.50
70107;DHT22;57473;37.508;15.080;2023-04-24T03:51:10;13.60;70.50
70107;DHT22;57473;37.508;15.080;2023-04-24T03:53:42;13.60;70.20
70107;DHT22;57473;37.508;15.080;2023-04-24T03:56:12;13.70;69.50
70107;DHT22;57473;37.508;15.080;2023-04-24T03:58:40;13.90;68.40
70107;DHT22;57473;37.508;15.080;2023-04-24T04:01:08;14.00;67.30
70107;DHT22;57473;37.508;15.080;2023-04-24T04:03:38;14.20;65.90
70107;DHT22;57473;37.508;15.080;2023-04-24T04:06:06;14.40;64.60
70107;DHT22;57473;37.508;15.080;2023-04-24T04:08:34;14.50;63.90
70107;DHT22;57473;37.508;15.080;2023-04-24T04:11:02;14.50;63.80
70107;DHT22;57473;37.508;15.080;2023-04-24T04:13:31;14.50;64.10
70107;DHT22;57473;37.508;15.080;2023-04-24T04:15:59;14.50;64.20
70107;DHT22;57473;37.508;15.080;2023-04-24T04:18:27;14.40;64.10
70107;DHT22;57473;37.508;15.080;2023-04-24T04:20:54;14.40;64.00
70107;DHT22;57473;37.508;15.080;2023-04-24T04:23:22;14.40;62.70
70107;DHT22;57473;37.508;15.080;2023-04-24T04:26:09;14.60;59.70
70107;DHT22;57473;37.508;15.080;2023-04-24T04:28:56;14.80;57.50
70107;DHT22;57473;37.508;15.080;2023-04-24T04:31:23;15.00;56.40
70107;DHT22;57473;37.508;15.080;2023-04-24T04:33:51;15.20;55.50
70107;DHT22;57473;37.508;15.080;2023-04-24T04:36:19;15.40;55.80
70107;DHT22;57473;37.508;15.080;2023-04-24T04:38:51;15.50;55.90
70107;DHT22;57473;37.508;15.080;2023-04-24T04:41:47;15.50;56.00
70107;DHT22;57473;37.508;15.080;2023-04-24T04:44:18;15.50;56.00
70107;DHT22;57473;37.508;15.080;2023-04-24T04:46:46;15.60;55.90
70107;DHT22;57473;37.508;15.080;2023-04-24T04:49:35;15.60;55.60
70107;DHT22;57473;37.508;15.080;2023-04-24T04:52:12;15.60;55.20
70107;DHT22;57473;37.508;15.080;2023-04-24T04:54:40;15.60;54.90
70107;DHT22;57473;37.508;15.080;2023-04-24T04:57:07;15.70;55.00
70107;DHT22;57473;37.508;15.080;2023-04-24T04:59:35;15.70;54.60
70107;DHT22;57473;37.508;15.080;2023-04-24T05:02:09;15.70;54.10
70107;DHT22;57473;37.508;15.080;2023-04-24T05:04:37;15.90;53.40
70107;DHT22;57473;37.508;15.080;2023-04-24T05:07:05;16.10;53.10
70107;DHT22;57473;37.508;15.080;2023-04-24T05:09:37;16.20;53.20
70107;DHT22;57473;37.508;15.080;2023-04-24T05:12:06;16.20;53.10
70107;DHT22;57473;37.508;15.080;2023-04-24T05:14:41;16.30;53.30
70107;DHT22;57473;37.508;15.080;2023-04-24T05:17:10;16.30;53.50
70107;DHT22;57473;37.508;15.080;2023-04-24T05:19:39;16.30;53.60
70107;DHT22;57473;37.508;15.080;2023-04-24T05:22:08;16.30;53.60
70107;DHT22;57473;37.508;15.080;2023-04-24T05:24:45;16.40;53.60
70107;DHT22;57473;37.508;15.080;2023-04-24T05:27:35;16.40;53.80
70107;DHT22;57473;37.508;15.080;2023-04-24T05:30:08;16.40;53.90
70107;DHT22;57473;37.508;15.080;2023-04-24T05:32:36;16.40;53.90
70107;DHT22;57473;37.508;15.080;2023-04-24T05:35:04;16.50;53.70
70107;DHT22;57473;37.508;15.080;2023-04-24T05:37:31;16.50;54.00
70107;DHT22;57473;37.508;15.080;2023-04-24T05:39:59;16.60;53.20
70107;DHT22;57473;37.508;15.080;2023-04-24T05:42:27;16.70;53.10
70107;DHT22;57473;37.508;15.080;2023-04-24T05:44:56;16.70;53.00
70107;DHT22;57473;37.508;15.080;2023-04-24T05:47:24;16.90;51.90
70107;DHT22;57473;37.508;15.080;2023-04-24T05:49:52;17.00;51.10
70107;DHT22;57473;37.508;15.080;2023-04-24T05:52:20;17.20;50.60
70107;DHT22;57473;37.508;15.080;2023-04-24T05:54:49;17.40;49.70
70107;DHT22;57473;37.508;15.080;2023-04-24T05:57:21;17.50;49.00
70107;DHT22;57473;37.508;15.080;2023-04-24T05:59:53;17.70;48.80
70107;DHT22;57473;37.508;15.080;2023-04-24T06:02:21;17.80;49.00
70107;DHT22;57473;37.508;15.080;2023-04-24T06:04:49;17.80;48.90
70107;DHT22;57473;37.508;15.080;2023-04-24T06:07:17;17.90;49.00
70107;DHT22;57473;37.508;15.080;2023-04-24T06:09:45;18.00;48.30
70107;DHT22;57473;37.508;15.080;2023-04-24T06:12:13;18.10;46.80
70107;DHT22;57473;37.508;15.080;2023-04-24T06:14:54;18.30;45.80
70107;DHT22;57473;37.508;15.080;2023-04-24T06:17:45;18.50;45.10
70107;DHT22;57473;37.508;15.080;2023-04-24T06:20:14;18.70;45.20
70107;DHT22;57473;37.508;15.080;2023-04-24T06:22:42;18.90;44.40
70107;DHT22;57473;37.508;15.080;2023-04-24T06:25:10;19.10;43.20
70107;DHT22;57473;37.508;15.080;2023-04-24T06:27:37;19.30;42.60
70107;DHT22;57473;37.508;15.080;2023-04-24T06:30:05;19.40;42.30
70107;DHT22;57473;37.508;15.080;2023-04-24T06:32:33;19.60;41.60
70107;DHT22;57473;37.508;15.080;2023-04-24T06:35:00;19.80;41.50
70107;DHT22;57473;37.508;15.080;2023-04-24T06:37:28;20.00;40.90
70107;DHT22;57473;37.508;15.080;2023-04-24T06:39:55;20.10;40.30
70107;DHT22;57473;37.508;15.080;2023-04-24T06:42:23;20.20;40.40
70107;DHT22;57473;37.508;15.080;2023-04-24T06:44:51;20.20;40.20
70107;DHT22;57473;37.508;15.080;2023-04-24T06:47:19;20.40;40.40
70107;DHT22;57473;37.508;15.080;2023-04-24T06:49:46;20.40;40.20
70107;DHT22;57473;37.508;15.080;2023-04-24T06:52:13;20.60;39.20
70107;DHT22;57473;37.508;15.080;2023-04-24T06:54:41;20.70;38.90
70107;DHT22;57473;37.508;15.080;2023-04-24T06:57:09;20.80;38.90
70107;DHT22;57473;37.508;15.080;2023-04-24T06:59:37;20.90;38.50
70107;DHT22;57473;37.508;15.080;2023-04-24T07:02:05;21.00;38.80
70107;DHT22;57473;37.508;15.080;2023-04-24T07:04:33;21.00;39.10
70107;DHT22;57473;37.508;15.080;2023-04-24T07:07:01;21.00;39.30
70107;DHT22;57473;37.508;15.080;2023-04-24T07:09:29;21.00;39.80
70107;DHT22;57473;37.508;15.080;2023-04-24T07:11:57;21.00;40.60
70107;DHT22;57473;37.508;15.080;2023-04-24T07:14:24;20.80;41.40
70107;DHT22;57473;37.508;15.080;2023-04-24T07:16:51;20.80;41.70
70107;DHT22;57473;37.508;15.080;2023-04-24T07:19:18;20.80;41.40
70107;DHT22;57473;37.508;15.080;2023-04-24T07:21:46;20.80;41.90
70107;DHT22;57473;37.508;15.080;2023-04-24T07:24:13;20.70;42.40
70107;DHT22;57473;37.508;15.080;2023-04-24T07:26:41;20.70;42.20
70107;DHT22;57473;37.508;15.080;2023-04-24T07:29:08;20.80;42.80
70107;DHT22;57473;37.508;15.080;2023-04-24T07:31:35;20.90;41.00
70107;DHT22;57473;37.508;15.080;2023-04-24T07:34:03;21.10;38.20
70107;DHT22;57473;37.508;15.080;2023-04-24T07:36:30;21.40;37.00
70107;DHT22;57473;37.508;15.080;2023-04-24T07:38:59;21.60;35.80
70107;DHT22;57473;37.508;15.080;2023-04-24T07:41:26;21.70;33.90
70107;DHT22;57473;37.508;15.080;2023-04-24T07:43:55;21.90;34.20
70107;DHT22;57473;37.508;15.080;2023-04-24T07:46:22;22.00;33.20
70107;DHT22;57473;37.508;15.080;2023-04-24T07:48:50;22.10;32.80
70107;DHT22;57473;37.508;15.080;2023-04-24T07:51:37;22.20;32.80
70107;DHT22;57473;37.508;15.080;2023-04-24T07:54:06;22.30;32.10
70107;DHT22;57473;37.508;15.080;2023-04-24T07:56:33;22.40;32.40
70107;DHT22;57473;37.508;15.080;2023-04-24T07:59:01;22.50;32.00
70107;DHT22;57473;37.508;15.080;2023-04-24T08:01:28;22.40;31.90
70107;DHT22;57473;37.508;15.080;2023-04-24T08:03:56;22.50;32.20
70107;DHT22;57473;37.508;15.080;2023-04-24T08:06:24;22.60;31.60
70107;DHT22;57473;37.508;15.080;2023-04-24T08:08:54;22.50;31.60
70107;DHT22;57473;37.508;15.080;2023-04-24T08:11:22;22.50;32.20
70107;DHT22;57473;37.508;15.080;2023-04-24T08:13:50;22.60;31.80
70107;DHT22;57473;37.508;15.080;2023-04-24T08:16:18;22.80;31.20
70107;DHT22;57473;37.508;15.080;2023-04-24T08:18:45;23.00;31.40
70107;DHT22;57473;37.508;15.080;2023-04-24T08:21:13;23.20;31.00
70107;DHT22;57473;37.508;15.080;2023-04-24T08:23:44;23.30;29.90
70107;DHT22;57473;37.508;15.080;2023-04-24T08:26:12;23.40;29.40
70107;DHT22;57473;37.508;15.080;2023-04-24T08:28:40;23.40;29.50
70107;DHT22;57473;37.508;15.080;2023-04-24T08:31:07;23.50;29.30
70107;DHT22;57473;37.508;15.080;2023-04-24T08:33:35;23.40;29.70
70107;DHT22;57473;37.508;15.080;2023-04-24T08:36:03;23.40;29.90
70107;DHT22;57473;37.508;15.080;2023-04-24T08:38:31;23.50;29.70
70107;DHT22;57473;37.508;15.080;2023-04-24T08:41:00;23.50;29.50
70107;DHT22;57473;37.508;15.080;2023-04-24T08:43:31;23.40;29.90
70107;DHT22;57473;37.508;15.080;2023-04-24T08:46:00;23.50;29.60
70107;DHT22;57473;37.508;15.080;2023-04-24T08:48:31;23.70;29.60
70107;DHT22;57473;37.508;15.080;2023-04-24T08:50:59;23.80;29.30
70107;DHT22;57473;37.508;15.080;2023-04-24T08:53:27;23.80;29.40
70107;DHT22;57473;37.508;15.080;2023-04-24T08:55:55;23.70;29.60
70107;DHT22;57473;37.508;15.080;2023-04-24T08:58:27;23.80;29.40
70107;DHT22;57473;37.508;15.080;2023-04-24T09:00:55;23.80;29.50
70107;DHT22;57473;37.508;15.080;2023-04-24T09:03:23;24.00;29.30
70107;DHT22;57473;37.508;15.080;2023-04-24T09:05:54;24.00;29.60
70107;DHT22;57473;37.508;15.080;2023-04-24T09:08:24;24.10;29.20
70107;DHT22;57473;37.508;15.080;2023-04-24T09:10:52;24.00;29.40
70107;DHT22;57473;37.508;15.080;2023-04-24T09:13:20;24.20;29.40
70107;DHT22;57473;37.508;15.080;2023-04-24T09:15:48;24.40;29.70
70107;DHT22;57473;37.508;15.080;2023-04-24T09:18:15;24.40;29.70
70107;DHT22;57473;37.508;15.080;2023-04-24T09:21:03;24.40;29.50
70107;DHT22;57473;37.508;15.080;2023-04-24T09:23:31;24.50;29.30
70107;DHT22;57473;37.508;15.080;2023-04-24T09:26:01;24.50;29.40
70107;DHT22;57473;37.508;15.080;2023-04-24T09:28:32;24.60;29.30
70107;DHT22;57473;37.508;15.080;2023-04-24T09:31:15;24.70;29.30
70107;DHT22;57473;37.508;15.080;2023-04-24T09:34:01;24.80;29.40
70107;DHT22;57473;37.508;15.080;2023-04-24T09:36:35;25.00;29.10
70107;DHT22;57473;37.508;15.080;2023-04-24T09:39:09;25.10;29.10
70107;DHT22;57473;37.508;15.080;2023-04-24T09:41:51;25.30;28.90
70107;DHT22;57473;37.508;15.080;2023-04-24T09:44:20;25.40;28.80
70107;DHT22;57473;37.508;15.080;2023-04-24T09:46:53;25.40;29.00
70107;DHT22;57473;37.508;15.080;2023-04-24T09:49:31;25.40;29.30
70107;DHT22;57473;37.508;15.080;2023-04-24T09:52:04;25.40;28.60
70107;DHT22;57473;37.508;15.080;2023-04-24T09:54:32;25.30;28.90
70107;DHT22;57473;37.508;15.080;2023-04-24T09:57:00;25.40;29.20
70107;DHT22;57473;37.508;15.080;2023-04-24T09:59:28;25.40;29.00
70107;DHT22;57473;37.508;15.080;2023-04-24T10:01:55;25.30;29.10
70107;DHT22;57473;37.508;15.080;2023-04-24T10:04:25;25.20;29.30
70107;DHT22;57473;37.508;15.080;2023-04-24T10:06:54;25.30;29.50
70107;DHT22;57473;37.508;15.080;2023-04-24T10:09:26;25.50;29.10
70107;DHT22;57473;37.508;15.080;2023-04-24T10:11:54;25.60;29.10
70107;DHT22;57473;37.508;15.080;2023-04-24T10:14:23;25.50;29.10
70107;DHT22;57473;37.508;15.080;2023-04-24T10:16:55;25.50;29.30
70107;DHT22;57473;37.508;15.080;2023-04-24T10:19:26;25.30;29.50
70107;DHT22;57473;37.508;15.080;2023-04-24T10:21:54;25.40;29.70
70107;DHT22;57473;37.508;15.080;2023-04-24T10:24:22;25.30;29.80
70107;DHT22;57473;37.508;15.080;2023-04-24T10:26:50;25.30;30.50
70107;DHT22;57473;37.508;15.080;2023-04-24T10:29:18;25.30;30.70
70107;DHT22;57473;37.508;15.080;2023-04-24T10:31:46;25.30;31.40
70107;DHT22;57473;37.508;15.080;2023-04-24T10:34:15;25.40;31.20
70107;DHT22;57473;37.508;15.080;2023-04-24T10:36:54;25.30;31.30
70107;DHT22;57473;37.508;15.080;2023-04-24T10:39:24;25.50;31.50
70107;DHT22;57473;37.508;15.080;2023-04-24T10:41:55;25.60;30.90
70107;DHT22;57473;37.508;15.080;2023-04-24T10:44:25;25.60;31.00
70107;DHT22;57473;37.508;15.080;2023-04-24T10:47:02;25.60;30.90
70107;DHT22;57473;37.508;15.080;2023-04-24T10:49:31;25.50;31.30
70107;DHT22;57473;37.508;15.080;2023-04-24T10:52:03;25.40;31.40
70107;DHT22;57473;37.508;15.080;2023-04-24T10:54:36;25.60;31.40
70107;DHT22;57473;37.508;15.080;2023-04-24T10:57:28;25.60;31.90
70107;DHT22;57473;37.508;15.080;2023-04-24T11:00:16;25.70;32.00
70107;DHT22;57473;37.508;15.080;2023-04-24T11:02:47;25.90;31.70
70107;DHT22;57473;37.508;15.080;2023-04-24T11:05:21;26.00;31.90
70107;DHT22;57473;37.508;15.080;2023-04-24T11:08:11;26.20;31.40
70107;DHT22;57473;37.508;15.080;2023-04-24T11:10:43;26.30;32.10
70107;DHT22;57473;37.508;15.080;2023-04-24T11:13:22;26.40;32.00
70107;DHT22;57473;37.508;15.080;2023-04-24T11:16:12;26.70;31.70
70107;DHT22;57473;37.508;15.080;2023-04-24T11:18:42;26.80;31.10
70107;DHT22;57473;37.508;15.080;2023-04-24T11:21:13;26.80;31.20
70107;DHT22;57473;37.508;15.080;2023-04-24T11:23:44;26.90;31.00
70107;DHT22;57473;37.508;15.080;2023-04-24T11:26:13;27.00;31.30
70107;DHT22;57473;37.508;15.080;2023-04-24T11:28:45;27.00;31.10
70107;DHT22;57473;37.508;15.080;2023-04-24T11:34:13;26.70;31.90
70107;DHT22;57473;37.508;15.080;2023-04-24T11:36:45;27.00;31.20
70107;DHT22;57473;37.508;15.080;2023-04-24T11:39:13;27.40;30.60
70107;DHT22;57473;37.508;15.080;2023-04-24T11:41:43;27.80;30.60
70107;DHT22;57473;37.508;15.080;2023-04-24T11:44:11;28.30;30.40
70107;DHT22;57473;37.508;15.080;2023-04-24T11:46:39;28.90;29.60
70107;DHT22;57473;37.508;15.080;2023-04-24T11:49:07;28.40;30.30
70107;DHT22;57473;37.508;15.080;2023-04-24T11:51:35;28.30;30.90
70107;DHT22;57473;37.508;15.080;2023-04-24T11:54:18;28.10;30.50
70107;DHT22;57473;37.508;15.080;2023-04-24T11:56:49;28.20;30.70
70107;DHT22;57473;37.508;15.080;2023-04-24T11:59:16;28.40;30.30
70107;DHT22;57473;37.508;15.080;2023-04-24T12:01:45;28.50;30.10
70107;DHT22;57473;37.508;15.080;2023-04-24T12:04:17;28.10;30.50
70107;DHT22;57473;37.508;15.080;2023-04-24T12:07:03;28.20;30.50
70107;DHT22;57473;37.508;15.080;2023-04-24T12:09:42;27.80;31.50
70107;DHT22;57473;37.508;15.080;2023-04-24T12:12:15;27.70;31.90
70107;DHT22;57473;37.508;15.080;2023-04-24T12:14:50;27.70;32.10
70107;DHT22;57473;37.508;15.080;2023-04-24T12:17:28;27.60;32.40
70107;DHT22;57473;37.508;15.080;2023-04-24T12:22:42;27.70;32.10
70107;DHT22;57473;37.508;15.080;2023-04-24T12:25:12;28.10;31.50
70107;DHT22;57473;37.508;15.080;2023-04-24T12:27:39;28.30;31.30
70107;DHT22;57473;37.508;15.080;2023-04-24T12:30:15;28.40;31.10
70107;DHT22;57473;37.508;15.080;2023-04-24T12:32:44;28.30;31.00
70107;DHT22;57473;37.508;15.080;2023-04-24T12:35:12;28.50;30.70
70107;DHT22;57473;37.508;15.080;2023-04-24T12:37:42;28.40;30.80
70107;DHT22;57473;37.508;15.080;2023-04-24T12:40:13;28.80;30.60
70107;DHT22;57473;37.508;15.080;2023-04-24T12:45:10;28.90;30.30
70107;DHT22;57473;37.508;15.080;2023-04-24T12:47:40;28.60;30.40
70107;DHT22;57473;37.508;15.080;2023-04-24T12:50:09;28.60;30.50
70107;DHT22;57473;37.508;15.080;2023-04-24T12:52:37;28.70;30.20
70107;DHT22;57473;37.508;15.080;2023-04-24T12:55:06;29.00;30.00
70107;DHT22;57473;37.508;15.080;2023-04-24T12:57:38;29.20;29.80
70107;DHT22;57473;37.508;15.080;2023-04-24T13:00:07;28.80;29.90
70107;DHT22;57473;37.508;15.080;2023-04-24T13:02:34;29.00;30.10
70107;DHT22;57473;37.508;15.080;2023-04-24T13:05:02;29.20;29.70
70107;DHT22;57473;37.508;15.080;2023-04-24T13:07:30;29.10;29.60
70107;DHT22;57473;37.508;15.080;2023-04-24T13:09:57;29.10;29.70
70107;DHT22;57473;37.508;15.080;2023-04-24T13:12:25;28.90;30.00
70107;DHT22;57473;37.508;15.080;2023-04-24T13:14:53;28.90;30.30
70107;DHT22;57473;37.508;15.080;2023-04-24T13:17:21;29.20;30.20
70107;DHT22;57473;37.508;15.080;2023-04-24T13:19:50;29.10;30.40
70107;DHT22;57473;37.508;15.080;2023-04-24T13:22:21;29.10;30.50
70107;DHT22;57473;37.508;15.080;2023-04-24T13:24:48;28.50;31.20
70107;DHT22;57473;37.508;15.080;2023-04-24T13:27:16;28.40;31.50
70107;DHT22;57473;37.508;15.080;2023-04-24T13:29:44;28.70;30.60
70107;DHT22;57473;37.508;15.080;2023-04-24T13:32:12;29.00;30.30
70107;DHT22;57473;37.508;15.080;2023-04-24T13:34:39;29.20;30.60
70107;DHT22;57473;37.508;15.080;2023-04-24T13:37:12;29.50;30.50
70107;DHT22;57473;37.508;15.080;2023-04-24T13:39:41;29.80;29.80
70107;DHT22;57473;37.508;15.080;2023-04-24T13:42:09;29.20;30.60
70107;DHT22;57473;37.508;15.080;2023-04-24T13:44:37;28.90;31.20
70107;DHT22;57473;37.508;15.080;2023-04-24T13:47:04;29.20;31.20
70107;DHT22;57473;37.508;15.080;2023-04-24T13:49:32;28.80;32.10
70107;DHT22;57473;37.508;15.080;2023-04-24T13:52:00;28.90;32.30
70107;DHT22;57473;37.508;15.080;2023-04-24T13:54:27;28.50;33.00
70107;DHT22;57473;37.508;15.080;2023-04-24T13:56:57;29.10;32.20
70107;DHT22;57473;37.508;15.080;2023-04-24T13:59:25;29.60;31.60
70107;DHT22;57473;37.508;15.080;2023-04-24T14:01:52;30.10;31.00
70107;DHT22;57473;37.508;15.080;2023-04-24T14:04:20;30.30;30.80
70107;DHT22;57473;37.508;15.080;2023-04-24T14:06:48;30.10;30.70
70107;DHT22;57473;37.508;15.080;2023-04-24T14:09:15;29.40;31.70
70107;DHT22;57473;37.508;15.080;2023-04-24T14:11:43;28.90;32.40
70107;DHT22;57473;37.508;15.080;2023-04-24T14:14:10;28.70;32.70
70107;DHT22;57473;37.508;15.080;2023-04-24T14:16:38;28.70;33.00
70107;DHT22;57473;37.508;15.080;2023-04-24T14:19:06;28.50;33.20
70107;DHT22;57473;37.508;15.080;2023-04-24T14:21:33;27.90;32.90
70107;DHT22;57473;37.508;15.080;2023-04-24T14:24:01;27.30;33.50
70107;DHT22;57473;37.508;15.080;2023-04-24T14:26:28;26.40;33.90
70107;DHT22;57473;37.508;15.080;2023-04-24T14:28:55;25.30;35.30
70107;DHT22;57473;37.508;15.080;2023-04-24T14:31:40;25.10;36.10
70107;DHT22;57473;37.508;15.080;2023-04-24T14:34:08;25.30;35.80
70107;DHT22;57473;37.508;15.080;2023-04-24T14:36:36;25.50;35.20
70107;DHT22;57473;37.508;15.080;2023-04-24T14:39:03;25.30;35.10
70107;DHT22;57473;37.508;15.080;2023-04-24T14:41:34;25.10;35.60
70107;DHT22;57473;37.508;15.080;2023-04-24T14:44:03;25.10;36.00
70107;DHT22;57473;37.508;15.080;2023-04-24T14:46:31;24.90;36.40
70107;DHT22;57473;37.508;15.080;2023-04-24T14:48:59;25.20;35.70
70107;DHT22;57473;37.508;15.080;2023-04-24T14:51:26;25.40;35.20
70107;DHT22;57473;37.508;15.080;2023-04-24T14:53:54;25.50;35.30
70107;DHT22;57473;37.508;15.080;2023-04-24T14:56:21;25.40;36.10
70107;DHT22;57473;37.508;15.080;2023-04-24T14:58:48;25.70;35.60
70107;DHT22;57473;37.508;15.080;2023-04-24T15:01:16;25.40;36.40
70107;DHT22;57473;37.508;15.080;2023-04-24T15:03:44;25.10;35.80
70107;DHT22;57473;37.508;15.080;2023-04-24T15:06:13;24.70;36.10
70107;DHT22;57473;37.508;15.080;2023-04-24T15:08:41;24.60;36.20
70107;DHT22;57473;37.508;15.080;2023-04-24T15:11:11;24.60;36.70
70107;DHT22;57473;37.508;15.080;2023-04-24T15:13:39;24.70;37.70
70107;DHT22;57473;37.508;15.080;2023-04-24T15:16:06;24.90;37.20
70107;DHT22;57473;37.508;15.080;2023-04-24T15:18:34;24.90;37.50
70107;DHT22;57473;37.508;15.080;2023-04-24T15:21:01;25.20;36.00
70107;DHT22;57473;37.508;15.080;2023-04-24T15:23:29;25.20;35.80
70107;DHT22;57473;37.508;15.080;2023-04-24T15:25:56;25.30;35.40
70107;DHT22;57473;37.508;15.080;2023-04-24T15:28:24;25.20;35.40
70107;DHT22;57473;37.508;15.080;2023-04-24T15:30:52;25.00;35.50
70107;DHT22;57473;37.508;15.080;2023-04-24T15:33:19;25.00;35.60
70107;DHT22;57473;37.508;15.080;2023-04-24T15:35:46;24.90;35.60
70107;DHT22;57473;37.508;15.080;2023-04-24T15:38:15;24.90;35.70